Wetterdaten: Mittwoch, 03.01.2007
Datum Zeit Temp. A. Feuchte A. Luftdruck Regen Wind Richtung Richtung UV Solar Windben
03.01.2007 00:02 5,4 C 93 % 1024,0 hPa 0,0 mm 18,3 km/h (3 Bft) W 270 0 UV-I 0 W/m 18,3 km/h (3 Bft)
03.01.2007 00:17 5,5 C 92 % 1024,0 hPa 0,0 mm 21,8 km/h (4 Bft) W-NW 285 0 UV-I 0 W/m 21,8 km/h (4 Bft)
03.01.2007 00:32 5,5 C 92 % 1024,0 hPa 0,0 mm 20,6 km/h (4 Bft) W-NW 295 0 UV-I 0 W/m 20,6 km/h (4 Bft)
03.01.2007 00:46 5,5 C 92 % 1024,0 hPa 0,0 mm 18,5 km/h (3 Bft) NW 305 0 UV-I 0 W/m 18,5 km/h (3 Bft)
03.01.2007 01:01 5,4 C 92 % 1025,0 hPa 0,0 mm 12,8 km/h (3 Bft) W-NW 285 0 UV-I 0 W/m 12,8 km/h (3 Bft)
03.01.2007 01:16 5,3 C 92 % 1025,0 hPa 0,0 mm 5,9 km/h (2 Bft) W-NW 285 0 UV-I 0 W/m 5,9 km/h (2 Bft)
03.01.2007 01:31 5,4 C 92 % 1025,0 hPa 0,0 mm 13,0 km/h (3 Bft) W 275 0 UV-I 0 W/m 13,0 km/h (3 Bft)
03.01.2007 01:46 5,3 C 92 % 1025,0 hPa 0,0 mm 11,7 km/h (2 Bft) W 265 0 UV-I 0 W/m 11,7 km/h (2 Bft)
03.01.2007 02:01 5,1 C 93 % 1025,0 hPa 0,0 mm 12,0 km/h (2 Bft) W 260 0 UV-I 0 W/m 12,0 km/h (2 Bft)
03.01.2007 02:16 4,9 C 94 % 1026,0 hPa 0,0 mm 12,9 km/h (3 Bft) SW 225 0 UV-I 0 W/m 12,9 km/h (3 Bft)
03.01.2007 02:31 4,7 C 95 % 1026,0 hPa 0,0 mm 11,1 km/h (2 Bft) W-SW 240 0 UV-I 0 W/m 11,1 km/h (2 Bft)
03.01.2007 02:46 4,7 C 95 % 1026,0 hPa 0,0 mm 12,8 km/h (3 Bft) W-SW 250 0 UV-I 0 W/m 12,8 km/h (3 Bft)
03.01.2007 03:01 4,5 C 96 % 1026,0 hPa 0,0 mm 13,0 km/h (3 Bft) W 265 0 UV-I 0 W/m 13,0 km/h (3 Bft)
03.01.2007 03:16 4,2 C 96 % 1026,0 hPa 0,0 mm 9,8 km/h (2 Bft) W 265 0 UV-I 0 W/m 9,8 km/h (2 Bft)
03.01.2007 03:31 4,0 C 97 % 1026,0 hPa 0,0 mm 12,5 km/h (3 Bft) W-SW 245 0 UV-I 0 W/m 12,5 km/h (3 Bft)
03.01.2007 03:46 4,0 C 98 % 1027,0 hPa 0,0 mm 8,5 km/h (2 Bft) W-SW 250 0 UV-I 0 W/m 8,5 km/h (2 Bft)
03.01.2007 04:01 4,1 C 98 % 1027,0 hPa 0,0 mm 11,3 km/h (2 Bft) W 260 0 UV-I 0 W/m 11,3 km/h (2 Bft)
03.01.2007 04:16 4,2 C 98 % 1027,0 hPa 0,0 mm 11,1 km/h (2 Bft) W 260 0 UV-I 0 W/m 11,1 km/h (2 Bft)
03.01.2007 04:31 4,3 C 99 % 1027,0 hPa 0,0 mm 11,7 km/h (2 Bft) W-SW 250 0 UV-I 0 W/m 11,7 km/h (2 Bft)
03.01.2007 04:46 4,3 C 98 % 1027,0 hPa 0,0 mm 17,9 km/h (3 Bft) SW 230 0 UV-I 0 W/m 17,9 km/h (3 Bft)
03.01.2007 05:01 4,1 C 98 % 1026,0 hPa 1,1 mm 8,7 km/h (2 Bft) W-SW 240 0 UV-I 0 W/m 8,7 km/h (2 Bft)
03.01.2007 05:16 4,1 C 99 % 1027,0 hPa 0,0 mm 11,0 km/h (2 Bft) W-SW 240 0 UV-I 0 W/m 11,0 km/h (2 Bft)
03.01.2007 05:31 4,0 C 99 % 1027,0 hPa 0,0 mm 20,0 km/h (4 Bft) W 260 0 UV-I 0 W/m 20,0 km/h (4 Bft)
03.01.2007 05:46 4,0 C 99 % 1027,0 hPa 0,0 mm 19,0 km/h (3 Bft) W 270 0 UV-I 0 W/m 19,0 km/h (3 Bft)
03.01.2007 06:02 3,8 C 100 % 1027,0 hPa 0,0 mm 12,3 km/h (3 Bft) W-SW 250 0 UV-I 0 W/m 12,3 km/h (3 Bft)
03.01.2007 06:17 4,0 C 100 % 1027,0 hPa 0,0 mm 10,1 km/h (2 Bft) W 265 0 UV-I 0 W/m 10,1 km/h (2 Bft)
03.01.2007 06:32 4,1 C 100 % 1027,0 hPa 0,0 mm 13,2 km/h (3 Bft) W-SW 255 0 UV-I 0 W/m 13,2 km/h (3 Bft)
03.01.2007 06:47 4,1 C 100 % 1027,0 hPa 0,0 mm 17,6 km/h (3 Bft) W 260 0 UV-I 0 W/m 17,6 km/h (3 Bft)
03.01.2007 07:02 4,0 C 100 % 1027,0 hPa 0,0 mm 16,1 km/h (3 Bft) W 260 0 UV-I 0 W/m 16,1 km/h (3 Bft)
03.01.2007 07:17 4,0 C 100 % 1028,0 hPa 0,0 mm 12,4 km/h (3 Bft) W-SW 250 0 UV-I 0 W/m 12,4 km/h (3 Bft)
03.01.2007 07:32 4,1 C 100 % 1028,0 hPa 0,0 mm 19,5 km/h (3 Bft) W-SW 250 0 UV-I 0 W/m 19,5 km/h (3 Bft)
03.01.2007 07:47 4,1 C 100 % 1028,0 hPa 0,0 mm 16,7 km/h (3 Bft) W 270 0 UV-I 0 W/m 16,7 km/h (3 Bft)
03.01.2007 08:02 4,1 C 100 % 1028,0 hPa 0,0 mm 11,2 km/h (2 Bft) W 275 0 UV-I 0 W/m 11,2 km/h (2 Bft)
03.01.2007 08:17 4,1 C 100 % 1028,0 hPa 0,0 mm 22,8 km/h (4 Bft) W-SW 250 0 UV-I 0 W/m 22,8 km/h (4 Bft)
03.01.2007 08:32 4,2 C 100 % 1028,0 hPa 0,0 mm 21,0 km/h (4 Bft) W-SW 240 0 UV-I 0 W/m 21,0 km/h (4 Bft)
03.01.2007 08:47 4,3 C 100 % 1028,0 hPa 0,0 mm 12,8 km/h (3 Bft) W 260 0 UV-I 0 W/m 12,8 km/h (3 Bft)
03.01.2007 09:02 4,3 C 100 % 1028,0 hPa 0,0 mm 20,2 km/h (4 Bft) W 260 0 UV-I 0 W/m 20,2 km/h (4 Bft)
03.01.2007 09:16 4,4 C 100 % 1028,0 hPa 0,0 mm 22,1 km/h (4 Bft) W-SW 250 0 UV-I 0 W/m 22,1 km/h (4 Bft)
03.01.2007 09:31 4,5 C 100 % 1028,0 hPa 0,0 mm 15,6 km/h (3 Bft) W 265 0 UV-I 0 W/m 15,6 km/h (3 Bft)
03.01.2007 09:46 4,6 C 100 % 1028,0 hPa 0,0 mm 18,5 km/h (3 Bft) W 260 0 UV-I 0 W/m 18,5 km/h (3 Bft)
03.01.2007 10:01 4,8 C 100 % 1028,0 hPa 0,0 mm 14,7 km/h (3 Bft) W-SW 255 0 UV-I 0 W/m 14,7 km/h (3 Bft)
03.01.2007 10:16 5,0 C 99 % 1028,0 hPa 0,0 mm 10,5 km/h (2 Bft) W-SW 245 0 UV-I 0 W/m 10,5 km/h (2 Bft)
03.01.2007 10:31 5,1 C 99 % 1028,0 hPa 0,0 mm 18,1 km/h (3 Bft) SW 225 0 UV-I 0 W/m 18,1 km/h (3 Bft)
03.01.2007 10:46 5,4 C 98 % 1028,0 hPa 0,0 mm 11,2 km/h (2 Bft) SW 215 0 UV-I 0 W/m 11,2 km/h (2 Bft)
03.01.2007 11:01 5,8 C 97 % 1028,0 hPa 0,0 mm 16,6 km/h (3 Bft) SW 220 0 UV-I 0 W/m 16,6 km/h (3 Bft)
03.01.2007 11:16 5,9 C 94 % 1028,0 hPa 0,0 mm 17,3 km/h (3 Bft) SW 235 0 UV-I 0 W/m 17,3 km/h (3 Bft)
03.01.2007 11:31 6,3 C 92 % 1028,0 hPa 0,0 mm 14,5 km/h (3 Bft) W-SW 240 0 UV-I 0 W/m 14,5 km/h (3 Bft)
03.01.2007 11:46 6,5 C 89 % 1028,0 hPa 0,0 mm 21,5 km/h (4 Bft) W-SW 250 0 UV-I 0 W/m 21,5 km/h (4 Bft)
03.01.2007 12:01 6,7 C 84 % 1028,0 hPa 0,0 mm 22,3 km/h (4 Bft) SW 230 0 UV-I 0 W/m 22,3 km/h (4 Bft)
03.01.2007 12:16 6,7 C 83 % 1027,0 hPa 0,0 mm 25,9 km/h (4 Bft) W-SW 240 0 UV-I 0 W/m 25,9 km/h (4 Bft)
03.01.2007 12:31 6,8 C 82 % 1027,0 hPa 0,0 mm 22,6 km/h (4 Bft) SW 225 0 UV-I 0 W/m 22,6 km/h (4 Bft)
03.01.2007 12:46 7,0 C 77 % 1027,0 hPa 0,0 mm 34,2 km/h (5 Bft) SW 225 0 UV-I 0 W/m 34,2 km/h (5 Bft)
03.01.2007 13:01 7,0 C 76 % 1026,0 hPa 0,0 mm 16,3 km/h (3 Bft) SW 215 0 UV-I 0 W/m 16,3 km/h (3 Bft)
03.01.2007 13:16 6,9 C 75 % 1026,0 hPa 0,0 mm 30,6 km/h (5 Bft) S-SW 205 0 UV-I 0 W/m 30,6 km/h (5 Bft)
03.01.2007 13:31 6,9 C 73 % 1026,0 hPa 0,0 mm 22,8 km/h (4 Bft) SW 215 0 UV-I 0 W/m 22,8 km/h (4 Bft)
03.01.2007 13:46 6,9 C 73 % 1026,0 hPa 0,0 mm 20,5 km/h (4 Bft) S-SW 195 0 UV-I 0 W/m 20,5 km/h (4 Bft)
03.01.2007 14:02 6,9 C 74 % 1026,0 hPa 0,0 mm 21,5 km/h (4 Bft) SW 225 0 UV-I 0 W/m 21,5 km/h (4 Bft)
03.01.2007 14:17 6,8 C 74 % 1025,0 hPa 0,0 mm 27,4 km/h (4 Bft) S-SW 210 0 UV-I 0 W/m 27,4 km/h (4 Bft)
03.01.2007 14:32 7,0 C 73 % 1025,0 hPa 0,0 mm 32,7 km/h (5 Bft) SW 225 0 UV-I 0 W/m 32,7 km/h (5 Bft)
03.01.2007 14:47 7,0 C 73 % 1025,0 hPa 0,0 mm 23,8 km/h (4 Bft) SW 220 0 UV-I 0 W/m 23,8 km/h (4 Bft)
03.01.2007 15:02 6,8 C 76 % 1025,0 hPa 0,0 mm 17,9 km/h (3 Bft) SW 225 0 UV-I 0 W/m 17,9 km/h (3 Bft)
03.01.2007 15:17 6,8 C 76 % 1025,0 hPa 0,0 mm 24,0 km/h (4 Bft) SW 215 0 UV-I 0 W/m 24,0 km/h (4 Bft)
03.01.2007 15:32 6,7 C 77 % 1025,0 hPa 0,0 mm 25,6 km/h (4 Bft) SW 215 0 UV-I 0 W/m 25,6 km/h (4 Bft)
03.01.2007 15:47 6,6 C 77 % 1025,0 hPa 0,0 mm 19,5 km/h (3 Bft) S-SW 205 0 UV-I 0 W/m 19,5 km/h (3 Bft)
03.01.2007 16:02 6,5 C 78 % 1025,0 hPa 0,0 mm 17,3 km/h (3 Bft) S-SW 200 0 UV-I 0 W/m 17,3 km/h (3 Bft)
03.01.2007 16:17 6,6 C 78 % 1024,0 hPa 0,0 mm 20,4 km/h (4 Bft) S-SW 210 0 UV-I 0 W/m 20,4 km/h (4 Bft)
03.01.2007 16:32 6,5 C 78 % 1024,0 hPa 0,0 mm 22,8 km/h (4 Bft) S-SW 205 0 UV-I 0 W/m 22,8 km/h (4 Bft)
03.01.2007 16:47 6,6 C 78 % 1024,0 hPa 0,0 mm 20,8 km/h (4 Bft) S-SW 205 0 UV-I 0 W/m 20,8 km/h (4 Bft)
03.01.2007 17:02 6,6 C 78 % 1024,0 hPa 0,0 mm 20,8 km/h (4 Bft) S-SW 205 0 UV-I 0 W/m 20,8 km/h (4 Bft)
03.01.2007 17:16 6,6 C 78 % 1024,0 hPa 0,0 mm 20,8 km/h (4 Bft) S-SW 205 0 UV-I 0 W/m 20,8 km/h (4 Bft)
03.01.2007 17:32 6,5 C 79 % 1023,0 hPa 0,0 mm 16,8 km/h (3 Bft) S-SW 195 0 UV-I 0 W/m 16,8 km/h (3 Bft)
03.01.2007 17:47 6,4 C 80 % 1023,0 hPa 0,0 mm 24,2 km/h (4 Bft) S-SW 200 0 UV-I 0 W/m 24,2 km/h (4 Bft)
03.01.2007 18:01 6,2 C 81 % 1022,0 hPa 0,0 mm 18,2 km/h (3 Bft) S-SW 195 0 UV-I 0 W/m 18,2 km/h (3 Bft)
03.01.2007 18:16 6,2 C 82 % 1022,0 hPa 0,4 mm 21,3 km/h (4 Bft) S 190 0 UV-I 0 W/m 21,3 km/h (4 Bft)
03.01.2007 18:31 6,2 C 82 % 1022,0 hPa 0,0 mm 19,9 km/h (4 Bft) S-SW 195 0 UV-I 0 W/m 19,9 km/h (4 Bft)
03.01.2007 18:46 6,4 C 81 % 1022,0 hPa 0,0 mm 22,1 km/h (4 Bft) S 185 0 UV-I 0 W/m 22,1 km/h (4 Bft)
03.01.2007 19:01 6,6 C 79 % 1021,0 hPa 0,0 mm 33,2 km/h (5 Bft) S-SW 205 0 UV-I 0 W/m 33,2 km/h (5 Bft)
03.01.2007 19:16 6,5 C 79 % 1021,0 hPa 0,0 mm 26,6 km/h (4 Bft) S 190 0 UV-I 0 W/m 26,6 km/h (4 Bft)
03.01.2007 19:31 6,5 C 80 % 1021,0 hPa 0,0 mm 20,2 km/h (4 Bft) S 185 0 UV-I 0 W/m 20,2 km/h (4 Bft)
03.01.2007 19:47 6,6 C 80 % 1021,0 hPa 0,0 mm 16,0 km/h (3 Bft) S 185 0 UV-I 0 W/m 16,0 km/h (3 Bft)
03.01.2007 20:01 6,7 C 81 % 1021,0 hPa 0,0 mm 21,5 km/h (4 Bft) S 190 0 UV-I 0 W/m 21,5 km/h (4 Bft)
03.01.2007 20:16 6,8 C 82 % 1020,0 hPa 0,0 mm 19,8 km/h (3 Bft) S 190 0 UV-I 0 W/m 19,8 km/h (3 Bft)
03.01.2007 20:31 6,8 C 83 % 1020,0 hPa 0,4 mm 20,6 km/h (4 Bft) S 190 0 UV-I 0 W/m 20,6 km/h (4 Bft)
03.01.2007 20:46 6,9 C 82 % 1020,0 hPa 0,0 mm 30,3 km/h (5 Bft) S 190 0 UV-I 0 W/m 30,3 km/h (5 Bft)
03.01.2007 21:01 7,3 C 78 % 1019,0 hPa 0,0 mm 21,1 km/h (4 Bft) S-SW 200 0 UV-I 0 W/m 21,1 km/h (4 Bft)
03.01.2007 21:16 7,4 C 77 % 1019,0 hPa 0,0 mm 18,5 km/h (3 Bft) S-SW 195 0 UV-I 0 W/m 18,5 km/h (3 Bft)
03.01.2007 21:31 7,4 C 77 % 1019,0 hPa 0,0 mm 12,3 km/h (3 Bft) S 185 0 UV-I 0 W/m 12,3 km/h (3 Bft)
03.01.2007 21:47 7,4 C 77 % 1018,0 hPa 0,0 mm 14,5 km/h (3 Bft) S-SW 195 0 UV-I 0 W/m 14,5 km/h (3 Bft)
03.01.2007 22:02 7,4 C 76 % 1018,0 hPa 0,0 mm 16,5 km/h (3 Bft) S-SW 200 0 UV-I 0 W/m 16,5 km/h (3 Bft)
03.01.2007 22:17 7,4 C 77 % 1018,0 hPa 0,0 mm 17,8 km/h (3 Bft) S 190 0 UV-I 0 W/m 17,8 km/h (3 Bft)
03.01.2007 22:32 7,5 C 76 % 1018,0 hPa 0,0 mm 21,1 km/h (4 Bft) S-SW 195 0 UV-I 0 W/m 21,1 km/h (4 Bft)
03.01.2007 22:47 7,4 C 76 % 1018,0 hPa 0,0 mm 18,5 km/h (3 Bft) S-SW 195 0 UV-I 0 W/m 18,5 km/h (3 Bft)
03.01.2007 23:02 7,5 C 75 % 1017,0 hPa 0,0 mm 26,0 km/h (4 Bft) S-SW 195 0 UV-I 0 W/m 26,0 km/h (4 Bft)
03.01.2007 23:17 7,4 C 74 % 1017,0 hPa 0,0 mm 17,1 km/h (3 Bft) S-SW 195 0 UV-I 0 W/m 17,1 km/h (3 Bft)
03.01.2007 23:32 7,4 C 74 % 1017,0 hPa 0,0 mm 15,5 km/h (3 Bft) S-SW 200 0 UV-I 0 W/m 15,5 km/h (3 Bft)
03.01.2007 23:47 7,4 C 74 % 1017,0 hPa 0,0 mm 18,7 km/h (3 Bft) S-SW 210 0 UV-I 0 W/m 18,7 km/h (3 Bft)
_ Min-Zeit 06:02 13:31 23:02 - 01:16 - - - - 01:16
Minimum _ 3,8 C 73 % 1017,0 hPa - 5,9 km/h (2 Bft) - - - - 5,9 km/h (2 Bft)
_ Max-Zeit 22:32 06:02 07:17 05:01 12:46 - - 00:02 00:02 12:46
Maximum _ 7,5 C 100 % 1028,0 hPa 1,1 mm 34,2 km/h
SW (5 Bft)
- - 0 UV-I 0 W/m 34,2 km/h
N (5 Bft)
Durchschnitt _ 5,8 C 87 % 1024,6 hPa #1,8 mm 18,2 km/h (3 Bft) S-SW - 0 UV-I 0 W/m 18,2 km/h (3 Bft)